createdAt,value
2022-10-11T00:00:42.837Z,12.29
2022-10-11T00:03:09.589Z,12.21
2022-10-11T00:05:37.178Z,12.27
2022-10-11T00:08:05.887Z,12.20
2022-10-11T00:10:33.904Z,12.24
2022-10-11T00:13:00.801Z,12.16
2022-10-11T00:15:27.543Z,12.17
2022-10-11T00:17:54.155Z,12.17
2022-10-11T00:20:20.733Z,12.15
2022-10-11T00:22:47.426Z,12.19
2022-10-11T00:25:13.926Z,12.11
2022-10-11T00:27:40.555Z,12.09
2022-10-11T00:30:07.948Z,12.00
2022-10-11T00:32:37.559Z,12.01
2022-10-11T00:35:06.422Z,12.06
2022-10-11T00:37:34.627Z,12.07
2022-10-11T00:40:01.376Z,12.04
2022-10-11T00:42:28.046Z,12.05
2022-10-11T00:45:26.400Z,12.05
2022-10-11T00:47:54.837Z,11.97
2022-10-11T00:50:24.416Z,11.94
2022-10-11T00:52:56.014Z,11.83
2022-10-11T00:55:26.703Z,11.75
2022-10-11T00:57:55.122Z,11.75
2022-10-11T01:00:21.834Z,11.66
2022-10-11T01:02:49.090Z,11.66
2022-10-11T01:05:29.324Z,11.65
2022-10-11T01:07:58.949Z,11.67
2022-10-11T01:10:26.881Z,11.68
2022-10-11T01:13:12.510Z,11.57
2022-10-11T01:16:21.183Z,11.56
2022-10-11T01:19:15.680Z,11.46
2022-10-11T01:21:55.578Z,11.46
2022-10-11T01:24:44.857Z,11.50
2022-10-11T01:27:55.400Z,11.47
2022-10-11T01:30:25.210Z,11.48
2022-10-11T01:33:05.806Z,11.48
2022-10-11T01:35:41.960Z,11.51
2022-10-11T01:38:17.115Z,11.58
2022-10-11T01:40:58.965Z,11.60
2022-10-11T01:43:27.032Z,11.69
2022-10-11T01:45:57.362Z,11.75
2022-10-11T01:48:24.006Z,11.74
2022-10-11T01:50:53.326Z,11.72
2022-10-11T01:53:56.344Z,11.74
2022-10-11T01:56:50.197Z,11.78
2022-10-11T01:59:22.634Z,11.81
2022-10-11T02:02:07.454Z,11.87
2022-10-11T02:04:54.147Z,11.94
2022-10-11T02:07:26.220Z,11.94
2022-10-11T02:10:00.509Z,12.03
2022-10-11T02:12:40.785Z,11.97
2022-10-11T02:15:09.766Z,11.99
2022-10-11T02:17:47.684Z,11.97
2022-10-11T02:20:19.855Z,12.02
2022-10-11T02:22:49.980Z,11.96
2022-10-11T02:25:22.930Z,11.96
2022-10-11T02:27:53.125Z,11.99
2022-10-11T02:30:19.867Z,11.92
2022-10-11T02:32:47.864Z,11.97
2022-10-11T02:35:15.012Z,11.92
2022-10-11T02:38:02.810Z,11.92
2022-10-11T02:40:33.496Z,11.87
2022-10-11T02:43:05.645Z,11.81
2022-10-11T02:45:41.641Z,11.78
2022-10-11T02:48:10.288Z,11.81
2022-10-11T02:50:39.510Z,11.86
2022-10-11T02:53:06.656Z,11.80
2022-10-11T02:55:33.246Z,11.82
2022-10-11T02:58:00.640Z,11.90
2022-10-11T03:00:27.228Z,11.91
2022-10-11T03:02:53.810Z,11.95
2022-10-11T03:05:20.478Z,11.90
2022-10-11T03:07:47.079Z,11.99
2022-10-11T03:10:13.652Z,12.04
2022-10-11T03:12:40.076Z,12.08
2022-10-11T03:15:07.125Z,12.04
2022-10-11T03:17:37.278Z,11.97
2022-10-11T03:20:07.233Z,11.79
2022-10-11T03:22:33.744Z,11.73
2022-10-11T03:25:03.971Z,11.61
2022-10-11T03:27:30.751Z,11.54
2022-10-11T03:29:57.811Z,11.54
2022-10-11T03:32:24.423Z,11.58
2022-10-11T03:34:50.904Z,11.56
2022-10-11T03:37:17.576Z,11.58
2022-10-11T03:39:45.538Z,11.60
2022-10-11T03:42:12.992Z,11.67
2022-10-11T03:44:39.570Z,11.78
2022-10-11T03:47:06.224Z,11.78
2022-10-11T03:49:32.944Z,11.77
2022-10-11T03:52:00.346Z,11.78
2022-10-11T03:54:27.138Z,11.85
2022-10-11T03:56:53.674Z,11.89
2022-10-11T03:59:30.656Z,11.84
2022-10-11T04:01:57.317Z,11.87
2022-10-11T04:04:27.393Z,11.96
2022-10-11T04:06:54.021Z,12.06
2022-10-11T04:09:20.600Z,12.01
2022-10-11T04:11:47.278Z,11.99
2022-10-11T04:14:13.989Z,12.00
2022-10-11T04:16:41.170Z,11.94
2022-10-11T04:19:09.950Z,11.95
2022-10-11T04:21:36.986Z,11.97
2022-10-11T04:24:03.791Z,11.96
2022-10-11T04:26:36.199Z,11.97
2022-10-11T04:29:02.742Z,11.96
2022-10-11T04:31:29.476Z,11.93
2022-10-11T04:33:57.062Z,11.94
2022-10-11T04:36:24.288Z,12.00
2022-10-11T04:38:50.994Z,12.11
2022-10-11T04:41:17.516Z,12.07
2022-10-11T04:43:44.004Z,12.10
2022-10-11T04:46:11.585Z,12.05
2022-10-11T04:48:38.639Z,12.04
2022-10-11T04:51:05.729Z,12.05
2022-10-11T04:53:32.411Z,12.13
2022-10-11T04:56:01.815Z,12.14
2022-10-11T04:58:29.774Z,12.15
2022-10-11T05:00:57.095Z,12.16
2022-10-11T05:03:25.519Z,12.14
2022-10-11T05:05:53.167Z,12.07
2022-10-11T05:08:20.589Z,12.08
2022-10-11T05:10:57.837Z,12.10
2022-10-11T05:13:25.235Z,12.14
2022-10-11T05:15:51.951Z,12.15
2022-10-11T05:18:18.713Z,12.17
2022-10-11T05:20:45.305Z,12.13
2022-10-11T05:23:12.534Z,12.13
2022-10-11T05:25:39.146Z,12.13
2022-10-11T05:28:06.191Z,12.08
2022-10-11T05:30:33.116Z,11.98
2022-10-11T05:33:00.101Z,11.91
2022-10-11T05:35:26.648Z,11.93
2022-10-11T05:37:53.153Z,11.89
2022-10-11T05:40:19.668Z,11.87
2022-10-11T05:42:46.131Z,11.81
2022-10-11T05:45:12.578Z,11.88
2022-10-11T05:47:39.103Z,11.95
2022-10-11T05:50:06.111Z,11.97
2022-10-11T05:52:32.662Z,12.04
2022-10-11T05:54:59.141Z,12.07
2022-10-11T05:57:25.650Z,12.10
2022-10-11T05:59:52.217Z,12.13
2022-10-11T06:02:23.883Z,12.11
2022-10-11T06:04:50.559Z,12.15
2022-10-11T06:07:17.142Z,12.13
2022-10-11T06:09:43.539Z,12.07
2022-10-11T06:12:10.091Z,12.04
2022-10-11T06:14:36.783Z,12.05
2022-10-11T06:17:03.400Z,12.15
2022-10-11T06:19:29.887Z,12.20
2022-10-11T06:21:56.491Z,12.24
2022-10-11T06:24:23.251Z,12.37
2022-10-11T06:26:49.712Z,12.38
2022-10-11T06:29:16.262Z,12.32
2022-10-11T06:31:43.077Z,12.33
2022-10-11T06:34:09.656Z,12.40
2022-10-11T06:36:36.422Z,12.44
2022-10-11T06:39:03.973Z,12.48
2022-10-11T06:41:35.124Z,12.46
2022-10-11T06:44:01.623Z,12.36
2022-10-11T06:46:28.279Z,12.31
2022-10-11T06:48:57.107Z,12.38
2022-10-11T06:51:24.469Z,12.52
2022-10-11T06:53:52.555Z,12.56
2022-10-11T06:56:19.723Z,12.53
2022-10-11T06:58:46.633Z,12.58
2022-10-11T07:01:16.297Z,12.63
2022-10-11T07:03:42.932Z,12.60
2022-10-11T07:06:12.885Z,12.57
2022-10-11T07:08:40.019Z,12.57
2022-10-11T07:11:12.845Z,12.56
2022-10-11T07:13:40.562Z,12.65
2022-10-11T07:16:10.411Z,12.59
2022-10-11T07:18:37.188Z,12.52
2022-10-11T07:21:08.878Z,12.60
2022-10-11T07:23:35.483Z,12.61
2022-10-11T07:26:02.348Z,12.61
2022-10-11T07:28:32.199Z,12.71
2022-10-11T07:30:59.279Z,12.72
2022-10-11T07:33:25.888Z,12.78
2022-10-11T07:35:56.912Z,12.81
2022-10-11T07:38:23.391Z,12.74
2022-10-11T07:40:49.962Z,12.75
2022-10-11T07:43:16.553Z,12.78
2022-10-11T07:45:45.426Z,12.82
2022-10-11T07:48:11.935Z,12.81
2022-10-11T07:50:38.803Z,12.95
2022-10-11T07:53:05.456Z,12.98
2022-10-11T07:55:41.048Z,13.11
2022-10-11T07:58:12.813Z,13.25
2022-10-11T08:00:42.660Z,13.37
2022-10-11T08:03:10.257Z,13.46
2022-10-11T08:05:38.694Z,13.59
2022-10-11T08:08:05.271Z,13.72
2022-10-11T08:10:37.420Z,13.80
2022-10-11T08:13:04.513Z,13.87
2022-10-11T08:15:31.272Z,14.09
2022-10-11T08:17:57.936Z,14.30
2022-10-11T08:20:24.511Z,14.43
2022-10-11T08:22:51.002Z,14.62
2022-10-11T08:25:17.599Z,14.73
2022-10-11T08:27:44.134Z,14.90
2022-10-11T08:30:11.261Z,14.92
2022-10-11T08:32:37.986Z,15.08
2022-10-11T08:35:06.077Z,15.24
2022-10-11T08:37:32.539Z,15.28
2022-10-11T08:39:59.299Z,15.27
2022-10-11T08:42:48.170Z,15.21
2022-10-11T08:45:43.139Z,15.08
2022-10-11T08:48:23.793Z,15.01
2022-10-11T08:50:52.313Z,14.95
2022-10-11T08:53:43.178Z,14.89
2022-10-11T08:56:12.752Z,14.95
2022-10-11T08:59:12.355Z,15.10
2022-10-11T09:01:46.236Z,15.28
2022-10-11T09:04:15.933Z,15.39
2022-10-11T09:07:23.532Z,15.41
2022-10-11T09:10:02.242Z,15.37
2022-10-11T09:12:39.826Z,15.46
2022-10-11T09:15:46.899Z,15.62
2022-10-11T09:18:54.828Z,15.75
2022-10-11T09:21:44.905Z,15.74
2022-10-11T09:24:28.484Z,15.86
2022-10-11T09:27:03.851Z,15.90
2022-10-11T09:30:07.756Z,16.01
2022-10-11T09:32:40.167Z,16.12
2022-10-11T09:35:17.713Z,16.28
2022-10-11T09:38:05.193Z,16.28
2022-10-11T09:40:45.191Z,16.38
2022-10-11T09:43:12.244Z,16.40
2022-10-11T09:45:49.190Z,16.35
2022-10-11T09:49:06.519Z,16.39
2022-10-11T09:56:10.334Z,16.43
2022-10-11T09:59:37.359Z,16.48
2022-10-11T10:02:31.542Z,16.56
2022-10-11T10:05:50.812Z,16.60
2022-10-11T10:12:59.611Z,16.81
2022-10-11T10:26:05.333Z,17.87
2022-10-11T10:32:09.144Z,17.09
2022-10-11T10:46:26.547Z,16.69
2022-10-11T11:09:11.313Z,17.67
2022-10-11T11:16:09.639Z,18.66
2022-10-11T11:19:14.804Z,18.91
2022-10-11T11:22:17.784Z,18.97
2022-10-11T11:25:09.294Z,19.02
2022-10-11T11:28:44.372Z,18.70
2022-10-11T11:31:36.113Z,17.96
2022-10-11T11:34:07.654Z,17.63
2022-10-11T11:36:51.674Z,16.64
2022-10-11T11:39:31.379Z,16.86
2022-10-11T11:42:16.483Z,16.77
2022-10-11T11:44:50.994Z,16.92
2022-10-11T11:47:32.565Z,16.99
2022-10-11T11:50:15.343Z,17.19
2022-10-11T11:52:51.433Z,17.29
2022-10-11T11:55:51.357Z,17.31
2022-10-11T11:58:59.015Z,17.07
2022-10-11T12:01:43.236Z,17.01
2022-10-11T12:04:28.630Z,16.93
2022-10-11T12:10:53.509Z,17.16
2022-10-11T12:13:37.097Z,17.21
2022-10-11T12:16:14.998Z,17.23
2022-10-11T12:19:01.996Z,17.09
2022-10-11T12:21:44.237Z,17.35
2022-10-11T12:24:26.795Z,17.58
2022-10-11T12:27:02.457Z,17.43
2022-10-11T12:29:53.019Z,17.00
2022-10-11T12:32:28.645Z,17.00
2022-10-11T12:35:39.281Z,17.33
2022-10-11T12:38:23.925Z,16.98
2022-10-11T12:40:54.812Z,17.39
2022-10-11T12:43:44.677Z,17.92
2022-10-11T12:46:29.713Z,17.86
2022-10-11T12:49:34.147Z,17.92
2022-10-11T12:52:41.449Z,17.93
2022-10-11T12:58:46.489Z,18.50
2022-10-11T13:01:17.654Z,18.49
2022-10-11T13:03:57.848Z,18.48
2022-10-11T13:06:29.459Z,18.62
2022-10-11T13:09:21.315Z,18.81
2022-10-11T13:11:56.554Z,18.79
2022-10-11T13:14:26.562Z,18.43
2022-10-11T13:17:01.171Z,18.50
2022-10-11T13:19:32.252Z,18.29
2022-10-11T13:22:20.892Z,18.18
2022-10-11T13:24:52.508Z,17.82
2022-10-11T13:27:27.316Z,18.24
2022-10-11T13:30:03.566Z,18.34
2022-10-11T13:32:47.486Z,18.11
2022-10-11T13:38:27.758Z,17.96
2022-10-11T13:40:59.901Z,17.96
2022-10-11T13:43:37.151Z,17.50
2022-10-11T13:46:30.873Z,17.66
2022-10-11T13:48:59.647Z,17.62
2022-10-11T13:51:38.775Z,17.55
2022-10-11T13:54:11.756Z,17.38
2022-10-11T13:56:53.256Z,17.52
2022-10-11T13:59:28.335Z,17.45
2022-10-11T14:02:04.625Z,17.44
2022-10-11T14:04:59.089Z,17.46
2022-10-11T14:07:41.368Z,17.47
2022-10-11T14:10:28.064Z,17.50
2022-10-11T14:13:30.831Z,17.43
2022-10-11T14:16:16.299Z,17.38
2022-10-11T14:19:12.443Z,17.40
2022-10-11T14:22:29.022Z,17.41
2022-10-11T14:24:47.196Z,17.47
2022-10-11T14:27:20.892Z,17.50
2022-10-11T14:33:44.054Z,17.43
2022-10-11T14:36:11.108Z,17.44
2022-10-11T14:38:44.058Z,17.38
2022-10-11T14:41:19.297Z,17.22
2022-10-11T14:44:09.856Z,17.13
2022-10-11T14:47:02.063Z,17.16
2022-10-11T14:52:57.191Z,17.10
2022-10-11T14:55:24.639Z,17.05
2022-10-11T15:16:33.442Z,16.74
2022-10-11T15:19:38.423Z,16.48
2022-10-11T15:27:39.239Z,16.76
2022-10-11T15:33:24.461Z,16.37
2022-10-11T15:36:08.320Z,16.33
2022-10-11T15:38:43.071Z,16.25
2022-10-11T15:41:20.378Z,16.10
2022-10-11T15:44:11.098Z,16.09
2022-10-11T15:46:45.912Z,16.04
2022-10-11T15:49:20.426Z,15.94
2022-10-11T15:52:08.616Z,15.90
2022-10-11T15:54:37.989Z,15.80
2022-10-11T15:57:05.012Z,15.70
2022-10-11T15:59:55.146Z,15.58
2022-10-11T16:02:25.164Z,15.46
2022-10-11T16:04:59.861Z,15.41
2022-10-11T16:07:35.644Z,15.34
2022-10-11T16:10:06.406Z,15.27
2022-10-11T16:12:36.243Z,15.26
2022-10-11T16:15:03.677Z,15.15
2022-10-11T16:17:33.252Z,15.09
2022-10-11T16:20:03.060Z,15.06
2022-10-11T16:23:01.116Z,14.96
2022-10-11T16:25:28.050Z,14.84
2022-10-11T16:27:54.866Z,14.79
2022-10-11T16:30:24.706Z,14.84
2022-10-11T16:32:56.048Z,14.82
2022-10-11T16:35:32.417Z,14.85
2022-10-11T16:38:02.315Z,14.81
2022-10-11T16:40:32.135Z,14.76
2022-10-11T16:43:09.427Z,14.79
2022-10-11T16:45:42.934Z,14.75
2022-10-11T16:48:17.661Z,14.76
2022-10-11T16:50:44.638Z,14.69
2022-10-11T16:53:11.637Z,14.60
2022-10-11T16:55:52.641Z,14.55
2022-10-11T16:58:27.093Z,14.57
2022-10-11T17:00:54.025Z,14.53
2022-10-11T17:03:25.644Z,14.41
2022-10-11T17:05:59.872Z,14.39
2022-10-11T17:08:26.903Z,14.32
2022-10-11T17:10:57.780Z,14.23
2022-10-11T17:13:24.960Z,14.13
2022-10-11T17:15:58.004Z,14.09
2022-10-11T17:18:25.138Z,14.04
2022-10-11T17:21:02.356Z,14.02
2022-10-11T17:23:44.058Z,13.99
2022-10-11T17:26:16.012Z,13.90
2022-10-11T17:28:46.173Z,13.75
2022-10-11T17:31:21.770Z,13.73
2022-10-11T17:33:54.457Z,13.76
2022-10-11T17:36:50.824Z,13.70
2022-10-11T17:39:25.493Z,13.66
2022-10-11T17:41:54.343Z,13.69
2022-10-11T17:44:47.433Z,13.72
2022-10-11T17:47:22.091Z,13.73
2022-10-11T17:49:52.358Z,13.71
2022-10-11T17:52:19.594Z,13.70
2022-10-11T17:54:49.232Z,13.72
2022-10-11T17:57:16.157Z,13.77
2022-10-11T17:59:46.502Z,13.80
2022-10-11T18:02:16.046Z,13.82
2022-10-11T18:04:47.146Z,13.75
2022-10-11T18:07:19.310Z,13.78
2022-10-11T18:09:46.341Z,13.81
2022-10-11T18:12:15.335Z,13.80
2022-10-11T18:14:45.222Z,13.82
2022-10-11T18:17:12.189Z,13.82
2022-10-11T18:19:39.175Z,13.75
2022-10-11T18:22:07.249Z,13.72
2022-10-11T18:24:34.562Z,13.72
2022-10-11T18:27:04.323Z,13.72
2022-10-11T18:29:35.718Z,13.60
2022-10-11T18:32:02.694Z,13.71
2022-10-11T18:34:30.869Z,13.65
2022-10-11T18:37:03.425Z,13.64
2022-10-11T18:39:32.182Z,13.62
2022-10-11T18:41:59.778Z,13.54
2022-10-11T18:44:32.222Z,13.54
2022-10-11T18:47:01.435Z,13.59
2022-10-11T18:49:30.684Z,13.60
2022-10-11T18:51:57.673Z,13.65
2022-10-11T18:54:24.591Z,13.61
2022-10-11T18:56:51.520Z,13.54
2022-10-11T18:59:31.212Z,13.55
2022-10-11T19:02:00.941Z,13.55
2022-10-11T19:04:28.684Z,13.55
2022-10-11T19:06:55.592Z,13.50
2022-10-11T19:09:24.635Z,13.46
2022-10-11T19:11:56.484Z,13.45
2022-10-11T19:14:33.379Z,13.46
2022-10-11T19:17:09.340Z,13.44
2022-10-11T19:19:47.741Z,13.34
2022-10-11T19:22:14.958Z,13.35
2022-10-11T19:24:46.397Z,13.27
2022-10-11T19:27:13.526Z,13.33
2022-10-11T19:29:40.454Z,13.29
2022-10-11T19:32:07.521Z,13.22
2022-10-11T19:34:34.361Z,13.15
2022-10-11T19:37:04.376Z,13.19
2022-10-11T19:39:31.700Z,13.16
2022-10-11T19:42:02.680Z,13.13
2022-10-11T19:44:31.796Z,13.16
2022-10-11T19:47:06.422Z,13.16
2022-10-11T19:49:33.962Z,13.10
2022-10-11T19:52:03.737Z,13.06
2022-10-11T19:54:30.529Z,13.06
2022-10-11T19:57:03.195Z,12.94
2022-10-11T19:59:32.011Z,12.96
2022-10-11T20:02:08.545Z,12.96
2022-10-11T20:04:51.954Z,12.98
2022-10-11T20:07:19.342Z,12.96
2022-10-11T20:09:51.943Z,12.89
2022-10-11T20:12:18.728Z,12.80
2022-10-11T20:14:45.337Z,12.77
2022-10-11T20:17:14.236Z,12.76
2022-10-11T20:19:41.084Z,12.75
2022-10-11T20:22:24.006Z,12.72
2022-10-11T20:24:53.219Z,12.73
2022-10-11T20:27:19.992Z,12.71
2022-10-11T20:29:50.056Z,12.64
2022-10-11T20:32:25.465Z,12.62
2022-10-11T20:34:52.095Z,12.64
2022-10-11T20:37:23.295Z,12.66
2022-10-11T20:39:52.171Z,12.73
2022-10-11T20:42:18.815Z,12.67
2022-10-11T20:44:47.603Z,12.64
2022-10-11T20:47:14.165Z,12.66
2022-10-11T20:49:43.793Z,12.63
2022-10-11T20:52:18.993Z,12.62
2022-10-11T20:54:45.586Z,12.61
2022-10-11T20:57:15.336Z,12.51
2022-10-11T20:59:44.719Z,12.50
2022-10-11T21:02:16.652Z,12.51
2022-10-11T21:04:46.000Z,12.53
2022-10-11T21:07:15.205Z,12.52
2022-10-11T21:09:41.820Z,12.57
2022-10-11T21:12:08.560Z,12.57
2022-10-11T21:14:40.524Z,12.42
2022-10-11T21:17:07.379Z,12.43
2022-10-11T21:19:59.851Z,12.46
2022-10-11T21:22:26.550Z,12.48
2022-10-11T21:24:55.498Z,12.42
2022-10-11T21:27:22.389Z,12.49
2022-10-11T21:29:49.239Z,12.53
2022-10-11T21:32:18.061Z,12.61
2022-10-11T21:34:45.206Z,12.62
2022-10-11T21:37:12.071Z,12.52
2022-10-11T21:41:36.201Z,12.53
2022-10-11T21:47:26.437Z,12.51
2022-10-11T21:49:58.331Z,12.49
2022-10-11T21:55:36.681Z,12.31
2022-10-11T21:58:06.784Z,12.18
2022-10-11T22:00:34.907Z,12.12
2022-10-11T22:03:01.778Z,12.09
2022-10-11T22:05:29.842Z,12.05
2022-10-11T22:08:01.578Z,12.09
2022-10-11T22:10:28.441Z,12.09
2022-10-11T22:13:04.660Z,12.15
2022-10-11T22:15:42.598Z,12.18
2022-10-11T22:18:23.266Z,12.16
2022-10-11T22:20:55.733Z,12.08
2022-10-11T22:23:32.835Z,11.97
2022-10-11T22:26:12.871Z,11.91
2022-10-11T22:28:41.472Z,12.02
2022-10-11T22:31:35.125Z,11.92
2022-10-11T22:34:39.761Z,11.88
2022-10-11T22:37:06.608Z,11.84
2022-10-11T22:39:33.373Z,11.84
2022-10-11T22:42:02.628Z,11.81
2022-10-11T22:44:32.427Z,11.73
2022-10-11T22:46:59.290Z,11.68
2022-10-11T22:49:26.886Z,11.60
2022-10-11T22:52:01.997Z,11.54
2022-10-11T22:54:31.810Z,11.57
2022-10-11T22:56:59.486Z,11.62
2022-10-11T22:59:26.298Z,11.60
2022-10-11T23:01:55.831Z,11.55
2022-10-11T23:04:22.506Z,11.41
2022-10-11T23:06:49.589Z,11.42
2022-10-11T23:09:16.552Z,11.46
2022-10-11T23:11:45.873Z,11.38
2022-10-11T23:14:12.891Z,11.37
2022-10-11T23:16:39.961Z,11.41
2022-10-11T23:19:08.921Z,11.26
2022-10-11T23:21:40.490Z,11.32
2022-10-11T23:24:11.046Z,11.31
2022-10-11T23:26:48.408Z,11.31
2022-10-11T23:29:17.818Z,11.36
2022-10-11T23:31:47.909Z,11.20
2022-10-11T23:34:18.044Z,11.13
2022-10-11T23:37:08.660Z,11.16
2022-10-11T23:39:41.024Z,11.23
2022-10-11T23:42:13.360Z,11.27
2022-10-11T23:44:48.059Z,11.30
2022-10-11T23:47:26.545Z,11.28
2022-10-11T23:50:16.633Z,11.27
2022-10-11T23:52:49.930Z,11.28
2022-10-11T23:55:17.040Z,11.27
2022-10-11T23:57:54.263Z,11.18
